This is the latest recevied weather packets stored in our database for station/object KB0RPJ. If no packets are shown the sender has not sent any weather packets the latest 1 day(s).
| Time | Temp. | Humidity | Pressure | Rain* | Wind** | Luminosity | Snow |
|---|---|---|---|---|---|---|---|
| 1777988406 | 11.11° C | 63% | 1010.9 hPa | 0 mm | 0 m/s | 28 W/m² | - |
| 1777988116 | 11.11° C | 61% | 1010.7 hPa | 0 mm | 0 m/s | 27 W/m² | - |
| 1777987805 | 11.11° C | 61% | 1010.4 hPa | 0 mm | 0 m/s | 32 W/m² | - |
| 1777987505 | 10.56° C | 62% | 1010.3 hPa | 0 mm | 0 m/s | 36 W/m² | - |
| 1777987205 | 10.56° C | 64% | 1010.1 hPa | 0 mm | 0 m/s | 30 W/m² | - |
| 1777986918 | 10.56° C | 64% | 1010.1 hPa | 0 mm | 0 m/s | 25 W/m² | - |
| 1777986606 | 10.56° C | 65% | 1010 hPa | 0 mm | 0 m/s | 21 W/m² | - |
| 1777986305 | 10.56° C | 64% | 1009.8 hPa | 0 mm | 0.45 m/s, 94° | 21 W/m² | - |
| 1777986006 | 10.56° C | 63% | 1009.5 hPa | 0 mm | 0.45 m/s, 94° | 21 W/m² | - |
| 1777985706 | 10° C | 63% | 1009.2 hPa | 0 mm | 0.45 m/s, 94° | 24 W/m² | - |
| 1777985409 | 10° C | 63% | 1009.1 hPa | 0 mm | 0 m/s | 29 W/m² | - |
| 1777985105 | 10° C | 62% | 1009.1 hPa | 0 mm | 0.45 m/s, 70° | 33 W/m² | - |
| 1777984805 | 10° C | 63% | 1009.3 hPa | 0 mm | 0 m/s | 25 W/m² | - |
| 1777984504 | 10° C | 62% | 1009.2 hPa | 0 mm | 0.45 m/s, 118° | 27 W/m² | - |
| 1777984205 | 10° C | 66% | 1009.1 hPa | 0 mm | 0 m/s | 26 W/m² | - |
| 1777983905 | 10° C | 66% | 1008.6 hPa | 0 mm | 0 m/s | 29 W/m² | - |
| 1777983605 | 10° C | 65% | 1008.7 hPa | 0 mm | 0.89 m/s, 19° | 23 W/m² | - |
| 1777983305 | 10° C | 65% | 1008.7 hPa | 0 mm | 0 m/s | 12 W/m² | - |
| 1777983015 | 10° C | 65% | 1008.9 hPa | 0 mm | 0 m/s | 7 W/m² | - |
| 1777982704 | 10° C | 65% | 1009 hPa | 0 mm | 0.89 m/s, 53° | 6 W/m² | - |
| 1777982405 | 10° C | 64% | 1009.2 hPa | 0 mm | 0.89 m/s, 15° | 6 W/m² | - |
| 1777982104 | 10.56° C | 65% | 1009.1 hPa | 0 mm | 0.89 m/s, 32° | 10 W/m² | - |
| 1777981805 | 10.56° C | 65% | 1008.8 hPa | 0 mm | 0.45 m/s, 26° | 14 W/m² | - |
| 1777981504 | 10.56° C | 63% | 1008.9 hPa | 0 mm | 0.45 m/s, 33° | 12 W/m² | - |
| 1777981205 | 10.56° C | 60% | 1009.2 hPa | 0 mm | 1.34 m/s, 32° | 8 W/m² | - |
* Rain latest hour (hover to see other rain measurements)
** Current wind speed in m/s (hover to see current wind gust speed)